Time;durP1;ratioP1;P1;durP2;ratioP2;P2;SDS_P1;SDS_P2;PMS_P1;PMS_P2;Temp;Humidity;BMP_temperature;BMP_pressure;BME280_temperature;BME280_humidity;BME280_pressure;Samples;Min_cycle;Max_cycle;Signal;HPM_P1;HPM_P2
2022/11/12 00:00:24;;;;;;;41.65;26.42;;;;;;;;;;5095592;28;20188;-77
2022/11/12 00:03:10;;;;;;;45.08;26.77;;;;;;;;;;5095539;28;20046;-77
2022/11/12 00:05:56;;;;;;;43.65;27.55;;;;;;;;;;5095637;28;20066;-76
2022/11/12 00:08:42;;;;;;;40.10;25.10;;;;;;;;;;5095323;28;20062;-76
2022/11/12 00:11:28;;;;;;;48.35;27.98;;;;;;;;;;5095695;28;20058;-76
2022/11/12 00:14:14;;;;;;;46.63;26.90;;;;;;;;;;5095228;28;20520;-76
2022/11/12 00:17:00;;;;;;;47.78;28.23;;;;;;;;;;5095304;28;20109;-77
2022/11/12 00:19:46;;;;;;;52.28;29.42;;;;;;;;;;5095575;28;20058;-76
2022/11/12 00:22:33;;;;;;;45.78;28.90;;;;;;;;;;5095385;28;20051;-76
2022/11/12 00:25:18;;;;;;;50.53;28.60;;;;;;;;;;5095281;28;20055;-76
2022/11/12 00:28:05;;;;;;;56.03;31.75;;;;;;;;;;5095364;28;20443;-76
2022/11/12 00:30:52;;;;;;;49.38;29.25;;;;;;;;;;5094928;28;20516;-77
2022/11/12 00:33:41;;;;;;;51.40;30.08;;;;;;;;;;5094907;28;20055;-77
2022/11/12 00:36:27;;;;;;;50.83;28.35;;;;;;;;;;5095006;28;20042;-75
2022/11/12 00:39:13;;;;;;;48.72;29.58;;;;;;;;;;5094603;28;20136;-76
2022/11/12 00:41:59;;;;;;;50.88;28.63;;;;;;;;;;5095013;28;20059;-76
2022/11/12 00:44:45;;;;;;;47.20;27.90;;;;;;;;;;5094756;28;20070;-77
2022/11/12 00:47:31;;;;;;;48.30;27.92;;;;;;;;;;5094622;28;20051;-77
2022/11/12 00:50:17;;;;;;;50.00;28.88;;;;;;;;;;5094684;28;20059;-77
2022/11/12 00:53:03;;;;;;;50.33;29.35;;;;;;;;;;5094613;28;20456;-76
2022/11/12 00:55:49;;;;;;;47.22;28.05;;;;;;;;;;5094518;28;20059;-77
2022/11/12 00:58:35;;;;;;;45.67;27.80;;;;;;;;;;5094468;28;20413;-76
2022/11/12 01:01:22;;;;;;;46.67;28.23;;;;;;;;;;5093139;28;20127;-77
2022/11/12 01:04:08;;;;;;;48.08;28.13;;;;;;;;;;5094435;28;20072;-76
2022/11/12 01:06:55;;;;;;;47.60;28.05;;;;;;;;;;5093933;28;20046;-76
2022/11/12 01:09:41;;;;;;;46.47;28.55;;;;;;;;;;5094621;28;20071;-77
2022/11/12 01:12:27;;;;;;;46.90;29.15;;;;;;;;;;5094413;28;20150;-77
2022/11/12 01:15:13;;;;;;;47.25;28.42;;;;;;;;;;5094057;28;20140;-77
2022/11/12 01:17:59;;;;;;;49.08;29.10;;;;;;;;;;5094099;28;20583;-77
2022/11/12 01:20:45;;;;;;;51.40;29.95;;;;;;;;;;5094312;28;20055;-77
2022/11/12 01:23:35;;;;;;;49.88;29.08;;;;;;;;;;5094019;28;20101;-77
2022/11/12 01:26:22;;;;;;;46.13;27.25;;;;;;;;;;5093809;28;20051;-76
2022/11/12 01:29:07;;;;;;;46.85;28.00;;;;;;;;;;5093704;28;20109;-77
2022/11/12 01:31:53;;;;;;;47.05;26.92;;;;;;;;;;5093224;28;20508;-77
2022/11/12 01:34:40;;;;;;;45.67;27.58;;;;;;;;;;5093761;28;20562;-76
2022/11/12 01:37:25;;;;;;;43.17;27.13;;;;;;;;;;5094078;28;20536;-76
2022/11/12 01:40:12;;;;;;;48.20;28.60;;;;;;;;;;5093516;28;20050;-76
2022/11/12 01:42:58;;;;;;;45.13;28.00;;;;;;;;;;5093622;28;20414;-76
2022/11/12 01:45:46;;;;;;;46.35;28.17;;;;;;;;;;5093462;28;20055;-78
2022/11/12 01:48:34;;;;;;;45.92;28.50;;;;;;;;;;5093419;28;20130;-76
2022/11/12 01:51:22;;;;;;;46.90;28.73;;;;;;;;;;5093359;28;20410;-75
2022/11/12 01:54:10;;;;;;;47.67;28.83;;;;;;;;;;5093314;28;20055;-76
2022/11/12 01:56:56;;;;;;;48.85;28.52;;;;;;;;;;5093486;28;20043;-76
2022/11/12 01:59:44;;;;;;;51.40;30.02;;;;;;;;;;5093460;28;20059;-76
2022/11/12 02:02:31;;;;;;;52.10;29.50;;;;;;;;;;5093116;28;20053;-76
2022/11/12 02:05:17;;;;;;;50.45;30.20;;;;;;;;;;5093151;28;20059;-76
2022/11/12 02:08:04;;;;;;;46.75;27.67;;;;;;;;;;5093162;28;20116;-76
2022/11/12 02:10:50;;;;;;;49.38;28.33;;;;;;;;;;5093191;28;20125;-76
2022/11/12 02:16:43;;;;;;;51.88;29.67;;;;;;;;;;5092425;28;20097;-76
2022/11/12 02:19:29;;;;;;;50.03;28.15;;;;;;;;;;5093372;28;20075;-76
2022/11/12 02:22:15;;;;;;;52.22;29.75;;;;;;;;;;5092965;28;20512;-76
2022/11/12 02:25:01;;;;;;;55.42;30.20;;;;;;;;;;5093158;28;20067;-76
2022/11/12 02:27:50;;;;;;;50.65;29.33;;;;;;;;;;5093006;28;20136;-76
2022/11/12 02:30:38;;;;;;;49.72;29.80;;;;;;;;;;5092162;28;20054;-76
2022/11/12 02:33:24;;;;;;;54.17;29.45;;;;;;;;;;5092881;28;20078;-76
2022/11/12 02:36:10;;;;;;;53.15;28.80;;;;;;;;;;5092849;28;20120;-76
2022/11/12 02:38:56;;;;;;;53.78;29.30;;;;;;;;;;5092922;28;20090;-76
2022/11/12 02:41:42;;;;;;;53.33;29.80;;;;;;;;;;5092486;28;20050;-77
2022/11/12 02:44:29;;;;;;;52.72;29.23;;;;;;;;;;5091772;28;20105;-76
2022/11/12 02:47:15;;;;;;;55.38;30.15;;;;;;;;;;5092804;28;20047;-76
2022/11/12 02:50:00;;;;;;;51.38;29.65;;;;;;;;;;5092939;28;20047;-75
2022/11/12 02:52:46;;;;;;;51.35;29.55;;;;;;;;;;5092583;28;20508;-77
2022/11/12 02:55:33;;;;;;;52.92;29.27;;;;;;;;;;5092533;28;20055;-76
2022/11/12 02:58:21;;;;;;;51.30;30.15;;;;;;;;;;5092471;28;20043;-76
2022/11/12 03:01:07;;;;;;;48.85;28.50;;;;;;;;;;5092670;28;20135;-76
2022/11/12 03:03:53;;;;;;;50.72;29.88;;;;;;;;;;5091386;28;20059;-76
2022/11/12 03:06:39;;;;;;;51.95;30.02;;;;;;;;;;5092792;28;20113;-76
2022/11/12 03:09:25;;;;;;;55.30;30.50;;;;;;;;;;5092346;28;20050;-76
2022/11/12 03:12:11;;;;;;;52.17;29.80;;;;;;;;;;5092736;28;20511;-76
2022/11/12 03:14:57;;;;;;;51.80;29.15;;;;;;;;;;5092362;28;20059;-76
2022/11/12 03:17:43;;;;;;;50.90;29.60;;;;;;;;;;5092080;28;20054;-76
2022/11/12 03:20:29;;;;;;;55.42;29.92;;;;;;;;;;5092337;28;20178;-75
2022/11/12 03:23:15;;;;;;;53.28;29.85;;;;;;;;;;5092647;28;20055;-76
2022/11/12 03:26:02;;;;;;;52.15;30.30;;;;;;;;;;5091396;28;20081;-77
2022/11/12 03:28:48;;;;;;;57.08;29.55;;;;;;;;;;5094050;28;20500;-76
2022/11/12 03:31:34;;;;;;;53.97;31.38;;;;;;;;;;5096077;28;20157;-76
2022/11/12 03:34:20;;;;;;;56.83;31.45;;;;;;;;;;5095968;28;20051;-76
2022/11/12 03:37:08;;;;;;;61.10;30.98;;;;;;;;;;5096282;28;20516;-76
2022/11/12 03:39:54;;;;;;;56.85;31.60;;;;;;;;;;5096196;28;20055;-76
2022/11/12 03:42:46;;;;;;;54.78;31.60;;;;;;;;;;5095737;28;20505;-77
2022/11/12 03:45:32;;;;;;;57.20;31.20;;;;;;;;;;5095818;28;20051;-78
2022/11/12 03:48:18;;;;;;;55.67;31.05;;;;;;;;;;5095775;28;20055;-76
2022/11/12 03:51:04;;;;;;;58.67;31.55;;;;;;;;;;5095545;28;20520;-75
2022/11/12 03:53:50;;;;;;;57.20;31.02;;;;;;;;;;5095696;28;20058;-76
2022/11/12 03:56:36;;;;;;;58.60;30.70;;;;;;;;;;5095550;28;20517;-76
2022/11/12 03:59:22;;;;;;;65.00;31.35;;;;;;;;;;5095389;28;20085;-76
2022/11/12 04:02:13;;;;;;;63.72;31.83;;;;;;;;;;5095712;28;20059;-76
2022/11/12 04:11:15;;;;;;;61.17;32.20;;;;;;;;;;5095330;28;20055;-76
2022/11/12 04:14:01;;;;;;;57.17;31.48;;;;;;;;;;5095139;28;20101;-76
2022/11/12 04:22:57;;;;;;;63.22;33.30;;;;;;;;;;5095144;28;20137;-76
2022/11/12 04:31:52;;;;;;;67.10;34.35;;;;;;;;;;5095076;28;20055;-77
2022/11/12 04:34:38;;;;;;;64.32;34.15;;;;;;;;;;5094741;28;20117;-76
2022/11/12 04:37:25;;;;;;;61.10;32.42;;;;;;;;;;5095212;28;20063;-76
2022/11/12 04:46:28;;;;;;;55.13;31.48;;;;;;;;;;5094771;28;20125;-76
2022/11/12 04:49:14;;;;;;;57.80;31.98;;;;;;;;;;5094599;28;20102;-77
2022/11/12 04:52:05;;;;;;;59.28;33.00;;;;;;;;;;5094592;28;20059;-77
2022/11/12 04:54:51;;;;;;;55.42;30.73;;;;;;;;;;5094485;28;20097;-77
2022/11/12 04:57:38;;;;;;;51.60;30.45;;;;;;;;;;5094529;28;20066;-76
2022/11/12 05:00:24;;;;;;;53.25;30.92;;;;;;;;;;5094064;28;20181;-76
2022/11/12 05:03:10;;;;;;;49.40;30.23;;;;;;;;;;5094400;28;20051;-76
2022/11/12 05:06:03;;;;;;;48.15;28.70;;;;;;;;;;5094462;28;20050;-74
2022/11/12 05:08:49;;;;;;;44.75;28.17;;;;;;;;;;5099987;28;20527;-74
2022/11/12 05:11:35;;;;;;;48.03;28.40;;;;;;;;;;5111810;28;20192;-73
2022/11/12 05:14:21;;;;;;;48.38;27.83;;;;;;;;;;5114461;28;20054;-73
2022/11/12 05:17:07;;;;;;;43.90;27.42;;;;;;;;;;5114356;28;20409;-76
2022/11/12 05:19:53;;;;;;;47.55;29.17;;;;;;;;;;5114153;28;20514;-76
2022/11/12 05:22:40;;;;;;;49.20;29.20;;;;;;;;;;5114201;28;20173;-77
2022/11/12 05:25:35;;;;;;;50.08;30.27;;;;;;;;;;5113373;28;20413;-76
2022/11/12 05:28:21;;;;;;;47.40;29.00;;;;;;;;;;5114481;28;20066;-75
2022/11/12 05:31:07;;;;;;;53.28;30.38;;;;;;;;;;5114028;28;20054;-77
2022/11/12 05:33:53;;;;;;;51.42;30.27;;;;;;;;;;5114180;28;20054;-76
2022/11/12 05:36:39;;;;;;;54.22;29.85;;;;;;;;;;5114247;28;20054;-77
2022/11/12 05:39:25;;;;;;;50.63;30.65;;;;;;;;;;5113709;28;20077;-75
2022/11/12 05:42:11;;;;;;;57.90;33.28;;;;;;;;;;5113650;28;20366;-74
2022/11/12 05:44:59;;;;;;;52.13;29.80;;;;;;;;;;5114193;28;20537;-75
2022/11/12 05:47:45;;;;;;;54.28;30.85;;;;;;;;;;5114225;28;20173;-73
2022/11/12 05:50:31;;;;;;;49.80;30.42;;;;;;;;;;5093192;28;20047;-76
2022/11/12 05:53:36;;;;;;;54.35;31.83;;;;;;;;;;5091625;28;20050;-76
2022/11/12 05:56:22;;;;;;;48.90;30.23;;;;;;;;;;5091379;28;20066;-76
2022/11/12 05:59:09;;;;;;;51.90;30.65;;;;;;;;;;5091510;28;20055;-76
2022/11/12 06:01:55;;;;;;;47.60;30.48;;;;;;;;;;5091680;28;20144;-76
2022/11/12 06:04:41;;;;;;;43.15;28.42;;;;;;;;;;5091352;28;20137;-75
2022/11/12 06:07:27;;;;;;;45.03;27.83;;;;;;;;;;5092532;28;20055;-75
2022/11/12 06:10:13;;;;;;;38.80;25.65;;;;;;;;;;5094178;28;20120;-75
2022/11/12 06:13:05;;;;;;;43.67;26.88;;;;;;;;;;5093003;28;20055;-75
2022/11/12 06:15:52;;;;;;;40.28;25.35;;;;;;;;;;5092998;28;20520;-74
2022/11/12 06:18:37;;;;;;;36.30;25.08;;;;;;;;;;5092957;28;20070;-74
2022/11/12 06:21:26;;;;;;;36.28;23.52;;;;;;;;;;5093158;28;20052;-75
2022/11/12 06:24:13;;;;;;;37.30;24.08;;;;;;;;;;5093159;28;20067;-74
2022/11/12 06:26:59;;;;;;;40.28;23.80;;;;;;;;;;5092779;28;20054;-75
2022/11/12 06:29:45;;;;;;;36.42;24.10;;;;;;;;;;5092661;28;20051;-75
2022/11/12 06:32:31;;;;;;;35.05;23.90;;;;;;;;;;5092773;28;20055;-75
2022/11/12 06:35:18;;;;;;;33.17;23.88;;;;;;;;;;5092502;28;20408;-75
2022/11/12 06:38:04;;;;;;;35.17;23.70;;;;;;;;;;5091869;28;20508;-75
2022/11/12 06:40:50;;;;;;;36.28;24.05;;;;;;;;;;5092574;28;20059;-74
2022/11/12 06:43:36;;;;;;;29.23;20.50;;;;;;;;;;5092675;28;20627;-75
2022/11/12 06:46:22;;;;;;;29.98;20.90;;;;;;;;;;5092571;28;20189;-74
2022/11/12 06:49:08;;;;;;;28.17;20.02;;;;;;;;;;5091530;28;20141;-74
2022/11/12 06:51:54;;;;;;;28.75;20.52;;;;;;;;;;5092297;28;20051;-75
2022/11/12 06:54:40;;;;;;;29.25;19.25;;;;;;;;;;5092186;28;20508;-75
2022/11/12 06:57:26;;;;;;;28.38;19.40;;;;;;;;;;5092796;28;20047;-75
2022/11/12 07:00:12;;;;;;;27.58;19.13;;;;;;;;;;5092405;28;20113;-75
2022/11/12 07:02:57;;;;;;;25.85;18.35;;;;;;;;;;5093049;28;20113;-74
2022/11/12 07:05:44;;;;;;;25.42;19.38;;;;;;;;;;5096732;28;20505;-75
2022/11/12 07:08:30;;;;;;;29.90;19.58;;;;;;;;;;5095850;28;20118;-75
2022/11/12 07:11:17;;;;;;;27.40;18.95;;;;;;;;;;5096523;28;20051;-75
2022/11/12 07:14:06;;;;;;;29.20;20.27;;;;;;;;;;5096233;28;20093;-75
2022/11/12 07:16:52;;;;;;;26.98;18.75;;;;;;;;;;5096106;28;20585;-74
2022/11/12 07:19:38;;;;;;;27.85;19.80;;;;;;;;;;5096222;28;20058;-75
2022/11/12 07:22:24;;;;;;;26.90;20.15;;;;;;;;;;5096031;28;20093;-75
2022/11/12 07:25:10;;;;;;;26.48;20.27;;;;;;;;;;5096267;28;20417;-75
2022/11/12 07:27:56;;;;;;;30.08;18.85;;;;;;;;;;5096008;28;20047;-75
2022/11/12 07:30:42;;;;;;;29.25;18.40;;;;;;;;;;5095928;28;20437;-75
2022/11/12 07:33:28;;;;;;;26.50;19.70;;;;;;;;;;5095709;28;20182;-74
2022/11/12 07:36:16;;;;;;;26.63;18.00;;;;;;;;;;5096112;28;20051;-75
2022/11/12 07:39:02;;;;;;;22.15;16.92;;;;;;;;;;5096026;28;20055;-75
2022/11/12 07:41:48;;;;;;;23.67;17.17;;;;;;;;;;5096207;28;20237;-76
2022/11/12 07:44:34;;;;;;;21.98;15.73;;;;;;;;;;5104087;28;20405;-75
2022/11/12 07:47:20;;;;;;;24.92;17.48;;;;;;;;;;5107609;28;20058;-75
2022/11/12 07:50:06;;;;;;;25.08;16.20;;;;;;;;;;5116133;28;20051;-75
2022/11/12 07:52:52;;;;;;;21.58;16.52;;;;;;;;;;5116134;28;20077;-75
2022/11/12 07:55:38;;;;;;;24.33;16.33;;;;;;;;;;5109743;28;20090;-75
2022/11/12 07:58:24;;;;;;;20.23;15.35;;;;;;;;;;5106391;28;20115;-75
2022/11/12 08:01:23;;;;;;;21.52;15.45;;;;;;;;;;5116016;28;20576;-75
2022/11/12 08:04:10;;;;;;;21.58;16.70;;;;;;;;;;5116075;28;20630;-76
2022/11/12 08:06:56;;;;;;;24.25;17.25;;;;;;;;;;5113145;28;20051;-78
2022/11/12 08:09:42;;;;;;;25.75;17.25;;;;;;;;;;5105387;28;20048;-77
2022/11/12 08:12:28;;;;;;;27.77;17.75;;;;;;;;;;5113659;28;20139;-77
2022/11/12 08:15:15;;;;;;;26.23;17.25;;;;;;;;;;5102241;28;20101;-77
2022/11/12 08:18:01;;;;;;;26.88;16.55;;;;;;;;;;5100136;28;20089;-77
2022/11/12 08:20:47;;;;;;;25.00;16.75;;;;;;;;;;5108294;28;20133;-75
2022/11/12 08:23:34;;;;;;;24.73;15.82;;;;;;;;;;5107135;28;20050;-74
2022/11/12 08:26:20;;;;;;;25.00;16.67;;;;;;;;;;5104371;28;20043;-76
2022/11/12 08:29:06;;;;;;;25.27;17.63;;;;;;;;;;5094995;28;20070;-75
2022/11/12 08:31:53;;;;;;;25.73;16.92;;;;;;;;;;5094985;28;20401;-76
2022/11/12 08:34:40;;;;;;;27.25;17.88;;;;;;;;;;5095056;28;20048;-76
2022/11/12 08:37:26;;;;;;;23.70;17.50;;;;;;;;;;5094886;28;20051;-76
2022/11/12 08:40:12;;;;;;;25.63;17.38;;;;;;;;;;5094828;28;20413;-76
2022/11/12 08:43:03;;;;;;;23.00;17.05;;;;;;;;;;5095004;28;20770;-76
2022/11/12 08:45:49;;;;;;;27.27;19.58;;;;;;;;;;5094675;28;20162;-75
2022/11/12 08:48:35;;;;;;;30.48;20.23;;;;;;;;;;5094930;28;20500;-76
2022/11/12 08:51:21;;;;;;;24.67;17.73;;;;;;;;;;5094770;28;20413;-76
2022/11/12 08:54:07;;;;;;;24.55;16.88;;;;;;;;;;5094639;28;20058;-76
2022/11/12 08:56:53;;;;;;;23.60;17.25;;;;;;;;;;5094397;28;20135;-76
2022/11/12 08:59:39;;;;;;;27.85;18.75;;;;;;;;;;5094668;28;20101;-76
2022/11/12 09:02:25;;;;;;;27.27;18.70;;;;;;;;;;5094543;28;20059;-76
2022/11/12 09:05:11;;;;;;;29.73;19.05;;;;;;;;;;5094188;28;20105;-76
2022/11/12 09:08:01;;;;;;;25.98;18.35;;;;;;;;;;5094345;28;20117;-75
2022/11/12 09:10:48;;;;;;;27.95;18.23;;;;;;;;;;5099090;28;20050;-75
2022/11/12 09:13:34;;;;;;;26.73;19.15;;;;;;;;;;5114615;28;20057;-75
2022/11/12 09:16:20;;;;;;;26.60;17.95;;;;;;;;;;5099623;28;20055;-76
2022/11/12 09:19:06;;;;;;;27.73;18.98;;;;;;;;;;5093878;28;20503;-75
2022/11/12 09:21:52;;;;;;;24.02;18.80;;;;;;;;;;5094355;28;20055;-75
2022/11/12 09:24:38;;;;;;;25.23;18.20;;;;;;;;;;5093957;28;20097;-76
2022/11/12 09:27:26;;;;;;;23.65;17.65;;;;;;;;;;5093732;28;20046;-75
2022/11/12 09:30:12;;;;;;;24.27;16.67;;;;;;;;;;5093898;28;20122;-75
2022/11/12 09:32:58;;;;;;;23.85;16.95;;;;;;;;;;5093829;28;20048;-75
2022/11/12 09:35:45;;;;;;;25.15;17.55;;;;;;;;;;5093745;28;20409;-76
2022/11/12 09:38:31;;;;;;;22.83;15.93;;;;;;;;;;5093047;28;20054;-75
2022/11/12 09:41:23;;;;;;;23.80;17.30;;;;;;;;;;5094153;28;20492;-75
2022/11/12 09:44:15;;;;;;;23.75;16.13;;;;;;;;;;5094002;28;20047;-76
2022/11/12 09:47:22;;;;;;;23.02;16.77;;;;;;;;;;5093650;28;20122;-74
2022/11/12 09:50:08;;;;;;;24.77;17.65;;;;;;;;;;5094059;28;20524;-74
2022/11/12 09:52:59;;;;;;;26.02;17.08;;;;;;;;;;5093396;28;20394;-77
2022/11/12 09:55:47;;;;;;;23.40;16.02;;;;;;;;;;5093549;28;20051;-75
2022/11/12 09:58:33;;;;;;;25.38;15.95;;;;;;;;;;5093411;28;20059;-76
2022/11/12 10:01:22;;;;;;;25.02;16.58;;;;;;;;;;5093196;28;20521;-75
2022/11/12 10:04:27;;;;;;;23.67;15.65;;;;;;;;;;5093348;28;20192;-76
2022/11/12 10:07:32;;;;;;;22.35;16.30;;;;;;;;;;5093468;28;20075;-74
2022/11/12 10:10:23;;;;;;;23.92;15.90;;;;;;;;;;5093494;28;20058;-74
2022/11/12 10:13:16;;;;;;;22.30;15.43;;;;;;;;;;5093364;28;20055;-74
2022/11/12 10:19:22;;;;;;;24.60;16.15;;;;;;;;;;5093411;28;20539;-74
2022/11/12 10:22:26;;;;;;;21.92;15.70;;;;;;;;;;5092791;28;20127;-74
2022/11/12 10:25:14;;;;;;;22.63;15.75;;;;;;;;;;5092790;28;20132;-74
2022/11/12 10:28:05;;;;;;;21.63;15.63;;;;;;;;;;5092881;28;20147;-74
2022/11/12 10:30:54;;;;;;;24.80;15.93;;;;;;;;;;5092847;28;20051;-74
2022/11/12 10:33:40;;;;;;;23.35;15.50;;;;;;;;;;5092852;28;20185;-74
2022/11/12 10:36:29;;;;;;;22.83;15.80;;;;;;;;;;5092508;28;20508;-74
2022/11/12 10:39:35;;;;;;;20.63;13.93;;;;;;;;;;5092263;28;20051;-73
2022/11/12 10:42:22;;;;;;;19.70;14.00;;;;;;;;;;5092743;28;20054;-76
2022/11/12 10:45:18;;;;;;;16.73;11.88;;;;;;;;;;5093227;28;20098;-74
2022/11/12 10:48:04;;;;;;;16.45;11.30;;;;;;;;;;5092831;28;20066;-76
2022/11/12 10:50:50;;;;;;;18.55;11.70;;;;;;;;;;5092574;28;20055;-76
2022/11/12 10:53:38;;;;;;;16.65;11.82;;;;;;;;;;5092474;28;20047;-75
2022/11/12 10:56:25;;;;;;;17.80;12.30;;;;;;;;;;5092396;28;20055;-76
2022/11/12 10:59:15;;;;;;;16.73;12.23;;;;;;;;;;5092565;28;20054;-75
2022/11/12 11:02:02;;;;;;;18.95;12.85;;;;;;;;;;5092678;28;20507;-74
2022/11/12 11:04:48;;;;;;;18.75;13.55;;;;;;;;;;5093101;28;20398;-75
2022/11/12 11:07:34;;;;;;;17.45;12.65;;;;;;;;;;5092818;28;20507;-77
2022/11/12 11:10:23;;;;;;;20.55;13.18;;;;;;;;;;5092728;28;20524;-75
2022/11/12 11:13:29;;;;;;;17.98;12.85;;;;;;;;;;5092831;28;20059;-76
2022/11/12 11:16:25;;;;;;;18.33;13.57;;;;;;;;;;5092399;28;20058;-75
2022/11/12 11:19:11;;;;;;;17.30;13.35;;;;;;;;;;5092580;28;20062;-73
2022/11/12 11:22:01;;;;;;;23.35;13.90;;;;;;;;;;5092688;28;20135;-75
2022/11/12 11:24:46;;;;;;;20.83;14.73;;;;;;;;;;5092602;28;20051;-74
2022/11/12 11:27:32;;;;;;;17.80;13.80;;;;;;;;;;5092305;28;20052;-74
2022/11/12 11:30:20;;;;;;;21.17;15.40;;;;;;;;;;5092314;28;20688;-74
2022/11/12 11:33:18;;;;;;;21.42;15.18;;;;;;;;;;5092400;28;20050;-74
2022/11/12 11:36:24;;;;;;;23.80;17.35;;;;;;;;;;5092216;28;20059;-74
2022/11/12 11:39:16;;;;;;;20.48;13.98;;;;;;;;;;5092025;28;20398;-74
2022/11/12 11:42:08;;;;;;;20.15;13.95;;;;;;;;;;5092151;28;20055;-73
2022/11/12 11:45:06;;;;;;;18.98;13.77;;;;;;;;;;5092265;28;20496;-74
2022/11/12 11:48:07;;;;;;;18.75;13.88;;;;;;;;;;5091971;28;20051;-74
2022/11/12 11:50:59;;;;;;;19.95;14.45;;;;;;;;;;5095611;28;20551;-74
2022/11/12 11:53:51;;;;;;;20.10;14.20;;;;;;;;;;5095833;28;20055;-75
2022/11/12 11:56:39;;;;;;;20.17;14.20;;;;;;;;;;5095695;28;20051;-75
2022/11/12 11:59:25;;;;;;;22.88;15.98;;;;;;;;;;5095848;28;20413;-76
2022/11/12 12:02:27;;;;;;;20.35;14.15;;;;;;;;;;5095548;28;20412;-75
2022/11/12 12:05:45;;;;;;;20.55;14.75;;;;;;;;;;5095457;28;20145;-73
2022/11/12 12:08:49;;;;;;;27.38;17.63;;;;;;;;;;5069843;28;20047;-74
2022/11/12 12:11:42;;;;;;;18.92;13.23;;;;;;;;;;5095750;28;20459;-74
2022/11/12 12:14:32;;;;;;;29.98;19.52;;;;;;;;;;5095415;28;20055;-75
2022/11/12 12:17:37;;;;;;;21.70;14.38;;;;;;;;;;5095385;28;20149;-75
2022/11/12 12:20:32;;;;;;;28.58;19.02;;;;;;;;;;5095443;28;20055;-75
2022/11/12 12:23:25;;;;;;;26.60;17.97;;;;;;;;;;5095509;28;20101;-73
2022/11/12 12:26:16;;;;;;;14.90;10.73;;;;;;;;;;5095569;28;20050;-74
2022/11/12 12:29:06;;;;;;;13.15;10.10;;;;;;;;;;5095364;28;20051;-74
2022/11/12 12:31:55;;;;;;;14.80;10.55;;;;;;;;;;5095351;28;20047;-74
2022/11/12 12:34:46;;;;;;;17.65;11.45;;;;;;;;;;5094952;28;20094;-74
2022/11/12 12:37:42;;;;;;;15.15;11.00;;;;;;;;;;5095198;28;20067;-74
2022/11/12 12:40:35;;;;;;;17.30;10.98;;;;;;;;;;5094985;28;20125;-74
2022/11/12 12:43:21;;;;;;;15.70;12.20;;;;;;;;;;5094804;28;20055;-74
2022/11/12 12:46:10;;;;;;;17.20;12.02;;;;;;;;;;5094981;28;20055;-76
2022/11/12 12:48:56;;;;;;;19.73;12.90;;;;;;;;;;5094678;28;20050;-74
2022/11/12 12:51:42;;;;;;;18.20;12.25;;;;;;;;;;5095242;28;20051;-74
2022/11/12 12:54:34;;;;;;;22.30;14.02;;;;;;;;;;5094600;28;20070;-76
2022/11/12 12:57:26;;;;;;;16.13;11.45;;;;;;;;;;5094549;28;20094;-72
2022/11/12 13:00:27;;;;;;;19.77;13.85;;;;;;;;;;5094584;28;20059;-73
2022/11/12 13:03:33;;;;;;;20.90;13.80;;;;;;;;;;5094332;28;20051;-74
2022/11/12 13:06:22;;;;;;;17.20;12.98;;;;;;;;;;5094376;28;20051;-75
2022/11/12 13:09:11;;;;;;;21.85;15.05;;;;;;;;;;5094304;28;20051;-73
2022/11/12 13:15:07;;;;;;;22.27;13.70;;;;;;;;;;5094236;28;20101;-73
2022/11/12 13:17:53;;;;;;;20.98;13.95;;;;;;;;;;5094211;28;20089;-75
2022/11/12 13:20:40;;;;;;;20.48;13.95;;;;;;;;;;5094060;28;20054;-74
2022/11/12 13:24:04;;;;;;;20.23;14.68;;;;;;;;;;5094233;28;20545;-74
2022/11/12 13:26:49;;;;;;;21.33;12.93;;;;;;;;;;5094119;28;20054;-75
2022/11/12 13:29:35;;;;;;;21.98;14.80;;;;;;;;;;5093931;28;20428;-75
2022/11/12 13:32:36;;;;;;;26.80;17.00;;;;;;;;;;5093763;28;20124;-75
2022/11/12 13:35:33;;;;;;;20.95;13.38;;;;;;;;;;5094096;28;20425;-74
2022/11/12 13:38:20;;;;;;;17.40;11.70;;;;;;;;;;5093791;28;20051;-75
2022/11/12 13:41:06;;;;;;;19.48;13.90;;;;;;;;;;5093659;28;20051;-75
2022/11/12 13:43:52;;;;;;;22.38;16.02;;;;;;;;;;5093674;28;20051;-75
2022/11/12 13:46:38;;;;;;;21.92;15.38;;;;;;;;;;5093892;28;20547;-76
2022/11/12 13:49:24;;;;;;;17.30;12.82;;;;;;;;;;5093591;28;20058;-75
2022/11/12 13:52:12;;;;;;;20.23;14.50;;;;;;;;;;5093730;28;20508;-73
2022/11/12 13:55:03;;;;;;;16.95;12.70;;;;;;;;;;5093544;28;20494;-73
2022/11/12 13:57:53;;;;;;;19.27;14.80;;;;;;;;;;5093497;28;20185;-72
2022/11/12 14:00:39;;;;;;;20.95;15.13;;;;;;;;;;5093486;28;20143;-72
2022/11/12 14:03:26;;;;;;;21.90;15.60;;;;;;;;;;5093210;28;20406;-72
2022/11/12 14:06:24;;;;;;;30.80;21.17;;;;;;;;;;5093607;28;20059;-74
2022/11/12 14:09:23;;;;;;;24.27;17.48;;;;;;;;;;5093322;28;20165;-74
2022/11/12 14:12:15;;;;;;;21.80;15.27;;;;;;;;;;5091759;28;20162;-75
2022/11/12 14:15:13;;;;;;;21.42;15.02;;;;;;;;;;5093321;28;20124;-74
2022/11/12 14:18:35;;;;;;;20.35;16.52;;;;;;;;;;5093114;28;20542;-75
2022/11/12 14:21:21;;;;;;;20.80;15.35;;;;;;;;;;5029986;28;20099;-76
2022/11/12 14:24:10;;;;;;;22.92;15.95;;;;;;;;;;5102218;28;20185;-77
2022/11/12 14:26:56;;;;;;;26.50;16.58;;;;;;;;;;5101217;28;20505;-78
2022/11/12 14:29:42;;;;;;;23.52;16.73;;;;;;;;;;5098276;28;20166;-75
2022/11/12 14:32:34;;;;;;;23.42;17.10;;;;;;;;;;5106329;28;20050;-74
2022/11/12 14:35:20;;;;;;;56.53;34.22;;;;;;;;;;5104567;28;20050;-74
2022/11/12 14:38:12;;;;;;;26.42;18.27;;;;;;;;;;5107604;28;20054;-74
2022/11/12 14:41:00;;;;;;;52.60;31.45;;;;;;;;;;5113203;28;20043;-78
2022/11/12 14:43:48;;;;;;;47.58;29.35;;;;;;;;;;5113002;28;20162;-72
2022/11/12 14:46:49;;;;;;;61.22;38.03;;;;;;;;;;5113082;28;20165;-74
2022/11/12 14:49:38;;;;;;;45.05;30.52;;;;;;;;;;5113191;28;20047;-73
2022/11/12 14:52:32;;;;;;;36.35;24.83;;;;;;;;;;5113225;28;20149;-73
2022/11/12 14:55:20;;;;;;;46.20;29.92;;;;;;;;;;5113057;28;20062;-73
2022/11/12 14:58:06;;;;;;;44.30;27.73;;;;;;;;;;5111964;28;20053;-73
2022/11/12 15:00:53;;;;;;;45.38;30.60;;;;;;;;;;5112903;28;20077;-73
2022/11/12 15:03:39;;;;;;;49.10;35.70;;;;;;;;;;5113044;28;20104;-74
2022/11/12 15:06:32;;;;;;;72.18;50.20;;;;;;;;;;5113029;28;20599;-74
2022/11/12 15:09:20;;;;;;;96.10;57.42;;;;;;;;;;5113097;28;20104;-73
2022/11/12 15:12:13;;;;;;;77.30;49.30;;;;;;;;;;5113041;28;20154;-73
2022/11/12 15:15:29;;;;;;;48.67;34.90;;;;;;;;;;5112746;28;20067;-73
2022/11/12 15:18:14;;;;;;;35.95;28.88;;;;;;;;;;5106399;28;20060;-73
2022/11/12 15:21:04;;;;;;;35.25;27.50;;;;;;;;;;5112723;28;20046;-74
2022/11/12 15:23:52;;;;;;;39.00;28.20;;;;;;;;;;5113251;28;20132;-73
2022/11/12 15:26:38;;;;;;;58.40;40.70;;;;;;;;;;5116656;28;20108;-74
2022/11/12 15:29:34;;;;;;;56.40;37.88;;;;;;;;;;5116918;28;20050;-74
2022/11/12 15:32:21;;;;;;;51.33;33.85;;;;;;;;;;5116534;28;20444;-74
2022/11/12 15:35:19;;;;;;;48.92;32.10;;;;;;;;;;5116566;28;20050;-74
2022/11/12 15:38:12;;;;;;;44.13;31.60;;;;;;;;;;5110629;28;20144;-74
2022/11/12 15:40:59;;;;;;;60.45;38.17;;;;;;;;;;5095911;28;20043;-73
2022/11/12 15:43:45;;;;;;;56.20;36.50;;;;;;;;;;5096284;28;20156;-73
2022/11/12 15:46:31;;;;;;;45.65;29.90;;;;;;;;;;5098410;28;20046;-75
2022/11/12 15:49:17;;;;;;;50.50;33.10;;;;;;;;;;5104689;28;20070;-73
2022/11/12 15:52:02;;;;;;;51.35;35.05;;;;;;;;;;5098568;28;20054;-75
2022/11/12 15:54:48;;;;;;;41.70;31.17;;;;;;;;;;5095597;28;20085;-73
2022/11/12 15:57:38;;;;;;;40.13;28.33;;;;;;;;;;5095587;28;20561;-74
2022/11/12 16:00:26;;;;;;;48.45;31.70;;;;;;;;;;5101463;28;20043;-74
2022/11/12 16:03:16;;;;;;;42.58;28.60;;;;;;;;;;5116197;28;20396;-73
2022/11/12 16:06:02;;;;;;;43.15;28.38;;;;;;;;;;5104386;28;20074;-72
2022/11/12 16:08:53;;;;;;;48.38;30.10;;;;;;;;;;5107497;28;20690;-72
2022/11/12 16:11:39;;;;;;;48.05;32.28;;;;;;;;;;5115735;28;20047;-73
2022/11/12 16:14:26;;;;;;;57.28;36.65;;;;;;;;;;5115673;28;20404;-71
2022/11/12 16:17:14;;;;;;;63.22;39.08;;;;;;;;;;5115442;28;20621;-73
2022/11/12 16:20:00;;;;;;;55.72;36.70;;;;;;;;;;5114635;28;20046;-72
2022/11/12 16:22:46;;;;;;;61.20;39.03;;;;;;;;;;5115528;28;20530;-71
2022/11/12 16:25:34;;;;;;;64.70;42.67;;;;;;;;;;5115454;28;20101;-73
2022/11/12 16:28:20;;;;;;;62.83;41.28;;;;;;;;;;5115363;28;20508;-71
2022/11/12 16:31:06;;;;;;;;;;;;;;;;;;5114846;28;20067;-72
2022/11/12 16:33:51;;;;;;;70.90;44.30;;;;;;;;;;5113012;28;20506;-72
2022/11/12 16:36:38;;;;;;;60.95;40.95;;;;;;;;;;5103939;28;20043;-71
2022/11/12 16:39:25;;;;;;;48.58;32.70;;;;;;;;;;5105636;28;20051;-74
2022/11/12 16:42:11;;;;;;;49.60;34.33;;;;;;;;;;5104033;28;20055;-73
2022/11/12 16:44:57;;;;;;;51.55;34.85;;;;;;;;;;5104524;28;20055;-72
2022/11/12 16:47:47;;;;;;;50.15;34.95;;;;;;;;;;5105403;28;20544;-74
2022/11/12 16:50:33;;;;;;;49.25;34.15;;;;;;;;;;5104003;28;20047;-73
2022/11/12 16:53:19;;;;;;;49.83;33.58;;;;;;;;;;5104859;28;20043;-74
2022/11/12 16:56:10;;;;;;;53.35;36.15;;;;;;;;;;5105220;28;20050;-73